createdAt,value
2023-05-03T00:01:34.057Z,98.11
2023-05-03T00:04:00.529Z,100.00
2023-05-03T00:06:27.120Z,99.34
2023-05-03T00:08:53.806Z,97.20
2023-05-03T00:11:21.178Z,98.32
2023-05-03T00:13:47.676Z,99.76
2023-05-03T00:16:14.308Z,99.70
2023-05-03T00:18:40.842Z,99.14
2023-05-03T00:21:07.490Z,98.57
2023-05-03T00:23:34.327Z,99.62
2023-05-03T00:26:00.806Z,100.00
2023-05-03T00:28:27.382Z,100.00
2023-05-03T00:30:54.122Z,100.00
2023-05-03T00:33:21.478Z,100.00
2023-05-03T00:35:47.897Z,100.00
2023-05-03T00:38:15.419Z,100.00
2023-05-03T00:40:41.949Z,100.00
2023-05-03T00:43:11.671Z,100.00
2023-05-03T00:45:38.449Z,100.00
2023-05-03T00:48:05.143Z,100.00
2023-05-03T00:50:31.709Z,100.00
2023-05-03T00:52:58.476Z,100.00
2023-05-03T00:55:26.279Z,100.00
2023-05-03T00:57:52.785Z,100.00
2023-05-03T01:00:20.360Z,100.00
2023-05-03T01:02:47.102Z,100.00
2023-05-03T01:09:17.503Z,100.00
2023-05-03T01:12:08.516Z,100.00
2023-05-03T01:15:01.153Z,100.00
2023-05-03T01:17:34.757Z,100.00
2023-05-03T01:20:08.192Z,100.00
2023-05-03T01:22:49.457Z,100.00
2023-05-03T01:25:16.485Z,100.00
2023-05-03T01:27:43.372Z,100.00
2023-05-03T01:30:12.477Z,100.00
2023-05-03T01:32:57.272Z,100.00
2023-05-03T01:35:33.103Z,100.00
2023-05-03T01:38:00.597Z,100.00
2023-05-03T01:40:29.150Z,100.00
2023-05-03T01:42:57.078Z,100.00
2023-05-03T01:45:23.741Z,100.00
2023-05-03T01:47:50.236Z,100.00
2023-05-03T01:50:16.785Z,100.00
2023-05-03T01:52:44.962Z,100.00
2023-05-03T01:55:11.735Z,100.00
2023-05-03T01:57:38.267Z,100.00
2023-05-03T02:00:05.701Z,100.00
2023-05-03T02:02:32.550Z,100.00
2023-05-03T02:04:59.037Z,100.00
2023-05-03T02:07:25.955Z,100.00
2023-05-03T02:09:52.412Z,100.00
2023-05-03T02:12:18.845Z,100.00
2023-05-03T02:14:45.453Z,100.00
2023-05-03T02:17:11.965Z,100.00
2023-05-03T02:19:38.450Z,100.00
2023-05-03T02:22:04.873Z,100.00
2023-05-03T02:24:31.713Z,100.00
2023-05-03T02:26:58.127Z,100.00
2023-05-03T02:29:24.705Z,100.00
2023-05-03T02:31:51.230Z,100.00
2023-05-03T02:34:17.653Z,100.00
2023-05-03T02:36:44.348Z,100.00
2023-05-03T02:39:11.183Z,100.00
2023-05-03T02:41:37.788Z,100.00
2023-05-03T02:44:04.319Z,100.00
2023-05-03T02:46:31.174Z,100.00
2023-05-03T02:48:57.714Z,100.00
2023-05-03T02:51:24.256Z,100.00
2023-05-03T02:53:50.752Z,100.00
2023-05-03T02:56:17.471Z,100.00
2023-05-03T02:58:43.938Z,100.00
2023-05-03T03:01:11.416Z,100.00
2023-05-03T03:03:38.049Z,100.00
2023-05-03T03:06:04.799Z,100.00
2023-05-03T03:08:31.288Z,100.00
2023-05-03T03:10:57.804Z,100.00
2023-05-03T03:13:24.370Z,100.00
2023-05-03T03:15:50.858Z,100.00
2023-05-03T03:18:19.034Z,100.00
2023-05-03T03:20:46.304Z,100.00
2023-05-03T03:23:12.805Z,100.00
2023-05-03T03:25:39.482Z,100.00
2023-05-03T03:28:05.913Z,100.00
2023-05-03T03:30:32.480Z,100.00
2023-05-03T03:32:59.001Z,100.00
2023-05-03T03:35:26.000Z,100.00
2023-05-03T03:37:53.819Z,100.00
2023-05-03T03:40:20.496Z,100.00
2023-05-03T03:42:46.930Z,100.00
2023-05-03T03:45:13.374Z,100.00
2023-05-03T03:47:39.806Z,100.00
2023-05-03T03:50:06.811Z,100.00
2023-05-03T03:52:33.627Z,100.00
2023-05-03T03:55:00.058Z,100.00
2023-05-03T03:57:30.081Z,100.00
2023-05-03T03:59:57.507Z,100.00
2023-05-03T04:02:24.751Z,100.00
2023-05-03T04:04:51.356Z,100.00
2023-05-03T04:07:17.901Z,100.00
2023-05-03T04:09:44.599Z,100.00
2023-05-03T04:12:11.463Z,100.00
2023-05-03T04:14:37.959Z,100.00
2023-05-03T04:17:04.743Z,100.00
2023-05-03T04:19:32.261Z,100.00
2023-05-03T04:21:58.786Z,100.00
2023-05-03T04:24:25.266Z,100.00
2023-05-03T04:26:51.854Z,100.00
2023-05-03T04:29:19.946Z,100.00
2023-05-03T04:31:46.997Z,100.00
2023-05-03T04:34:15.994Z,100.00
2023-05-03T04:36:42.893Z,100.00
2023-05-03T04:39:11.605Z,100.00
2023-05-03T04:41:38.048Z,100.00
2023-05-03T04:44:05.842Z,100.00
2023-05-03T04:46:32.479Z,100.00
2023-05-03T04:48:59.001Z,100.00
2023-05-03T04:51:25.570Z,100.00
2023-05-03T04:53:51.981Z,100.00
2023-05-03T04:56:20.526Z,100.00
2023-05-03T04:58:47.103Z,100.00
2023-05-03T05:01:14.310Z,100.00
2023-05-03T05:03:40.888Z,100.00
2023-05-03T05:06:09.827Z,100.00
2023-05-03T05:08:36.635Z,100.00
2023-05-03T05:11:06.286Z,100.00
2023-05-03T05:13:32.807Z,100.00
2023-05-03T05:15:59.375Z,100.00
2023-05-03T05:18:26.081Z,100.00
2023-05-03T05:20:52.604Z,100.00
2023-05-03T05:23:19.467Z,100.00
2023-05-03T05:25:46.150Z,100.00
2023-05-03T05:28:12.567Z,100.00
2023-05-03T05:30:39.125Z,100.00
2023-05-03T05:33:05.971Z,100.00
2023-05-03T05:35:33.821Z,100.00
2023-05-03T05:38:00.370Z,100.00
2023-05-03T05:40:26.905Z,100.00
2023-05-03T05:42:53.484Z,100.00
2023-05-03T05:45:19.969Z,100.00
2023-05-03T05:47:46.849Z,100.00
2023-05-03T05:50:18.323Z,100.00
2023-05-03T05:52:45.345Z,100.00
2023-05-03T05:55:14.622Z,100.00
2023-05-03T05:57:41.156Z,100.00
2023-05-03T06:00:14.643Z,100.00
2023-05-03T06:02:42.260Z,100.00
2023-05-03T06:05:09.385Z,100.00
2023-05-03T06:07:36.641Z,100.00
2023-05-03T06:10:04.564Z,100.00
2023-05-03T06:12:31.508Z,100.00
2023-05-03T06:15:02.901Z,100.00
2023-05-03T06:17:29.751Z,99.02
2023-05-03T06:19:57.124Z,97.59
2023-05-03T06:22:23.704Z,95.23
2023-05-03T06:24:50.651Z,93.75
2023-05-03T06:27:17.401Z,92.67
2023-05-03T06:29:44.734Z,90.32
2023-05-03T06:32:11.163Z,86.97
2023-05-03T06:34:37.963Z,88.02
2023-05-03T06:37:04.587Z,86.98
2023-05-03T06:39:31.147Z,84.69
2023-05-03T06:41:57.630Z,81.95
2023-05-03T06:44:24.091Z,79.97
2023-05-03T06:46:51.398Z,79.61
2023-05-03T06:49:18.188Z,77.10
2023-05-03T06:51:44.674Z,74.71
2023-05-03T06:54:11.176Z,72.34
2023-05-03T06:56:37.741Z,70.72
2023-05-03T06:59:04.470Z,70.43
2023-05-03T07:01:32.113Z,67.80
2023-05-03T07:03:58.764Z,66.49
2023-05-03T07:06:25.395Z,63.68
2023-05-03T07:08:52.687Z,62.49
2023-05-03T07:11:23.734Z,61.20
2023-05-03T07:13:51.494Z,60.02
2023-05-03T07:16:19.119Z,59.63
2023-05-03T07:18:46.650Z,57.22
2023-05-03T07:21:13.665Z,55.99
2023-05-03T07:23:40.724Z,54.83
2023-05-03T07:26:08.165Z,53.88
2023-05-03T07:28:34.666Z,54.82
2023-05-03T07:31:03.433Z,53.58
2023-05-03T07:33:30.626Z,53.26
2023-05-03T07:35:57.176Z,51.85
2023-05-03T07:38:23.617Z,52.19
2023-05-03T07:40:50.306Z,49.97
2023-05-03T07:43:21.235Z,51.37
2023-05-03T07:45:47.864Z,50.60
2023-05-03T07:48:14.409Z,49.40
2023-05-03T07:50:44.259Z,49.05
2023-05-03T07:53:12.273Z,48.62
2023-05-03T07:55:38.973Z,48.19
2023-05-03T07:58:05.501Z,47.38
2023-05-03T08:00:32.073Z,47.24
2023-05-03T08:02:58.673Z,47.58
2023-05-03T08:05:25.542Z,45.70
2023-05-03T08:07:52.684Z,45.57
2023-05-03T08:10:19.427Z,45.87
2023-05-03T08:12:46.555Z,45.45
2023-05-03T08:15:13.234Z,45.19
2023-05-03T08:17:45.443Z,45.50
2023-05-03T08:20:13.413Z,43.59
2023-05-03T08:22:41.309Z,42.65
2023-05-03T08:25:08.215Z,43.05
2023-05-03T08:27:34.723Z,42.99
2023-05-03T08:30:01.902Z,43.08
2023-05-03T08:32:29.723Z,42.90
2023-05-03T08:34:56.830Z,42.88
2023-05-03T08:37:23.678Z,42.37
2023-05-03T08:39:50.226Z,42.27
2023-05-03T08:42:17.050Z,41.67
2023-05-03T08:44:48.491Z,41.86
2023-05-03T08:47:16.996Z,41.71
2023-05-03T08:49:44.606Z,40.93
2023-05-03T08:52:14.105Z,40.10
2023-05-03T08:54:41.538Z,40.21
2023-05-03T08:57:13.645Z,39.18
2023-05-03T08:59:47.631Z,39.16
2023-05-03T09:02:15.925Z,39.76
2023-05-03T09:04:42.815Z,39.04
2023-05-03T09:07:13.370Z,39.34
2023-05-03T09:09:39.911Z,38.42
2023-05-03T09:12:06.546Z,38.26
2023-05-03T09:14:43.308Z,40.54
2023-05-03T09:17:21.493Z,38.95
2023-05-03T09:19:53.144Z,37.93
2023-05-03T09:22:20.316Z,37.70
2023-05-03T09:24:54.415Z,38.39
2023-05-03T09:27:21.590Z,36.85
2023-05-03T09:29:48.873Z,36.95
2023-05-03T09:32:16.118Z,38.86
2023-05-03T09:34:43.443Z,38.05
2023-05-03T09:37:10.495Z,37.85
2023-05-03T09:39:37.070Z,36.27
2023-05-03T09:42:14.724Z,35.80
2023-05-03T09:44:55.533Z,35.87
2023-05-03T09:47:24.563Z,35.10
2023-05-03T09:49:51.144Z,34.89
2023-05-03T09:52:17.763Z,36.25
2023-05-03T09:54:44.894Z,36.91
2023-05-03T09:57:14.641Z,38.71
2023-05-03T09:59:42.193Z,38.63
2023-05-03T10:02:08.886Z,35.68
2023-05-03T10:04:57.229Z,35.01
2023-05-03T10:07:28.405Z,35.53
2023-05-03T10:09:58.036Z,35.04
2023-05-03T10:12:26.310Z,34.28
2023-05-03T10:14:54.953Z,33.78
2023-05-03T10:17:46.177Z,34.65
2023-05-03T10:20:23.789Z,33.00
2023-05-03T10:23:06.003Z,32.80
2023-05-03T10:25:34.511Z,31.85
2023-05-03T10:28:08.240Z,32.74
2023-05-03T10:30:39.530Z,34.66
2023-05-03T10:33:14.856Z,33.15
2023-05-03T10:35:54.700Z,33.73
2023-05-03T10:38:23.843Z,34.30
2023-05-03T10:40:51.071Z,35.08
2023-05-03T10:43:29.661Z,34.51
2023-05-03T10:46:03.513Z,34.77
2023-05-03T10:48:31.285Z,35.15
2023-05-03T10:51:18.687Z,35.08
2023-05-03T10:53:45.153Z,35.10
2023-05-03T10:56:15.666Z,35.99
2023-05-03T10:58:44.748Z,35.71
2023-05-03T11:01:13.368Z,35.78
2023-05-03T11:03:51.587Z,35.67
2023-05-03T11:06:28.104Z,35.46
2023-05-03T11:08:54.686Z,36.09
2023-05-03T11:11:22.104Z,36.43
2023-05-03T11:13:50.902Z,36.24
2023-05-03T11:16:17.793Z,36.91
2023-05-03T11:18:45.346Z,37.94
2023-05-03T11:21:12.901Z,38.63
2023-05-03T11:23:39.800Z,37.90
2023-05-03T11:26:06.698Z,37.69
2023-05-03T11:28:33.158Z,36.02
2023-05-03T11:31:02.163Z,35.99
2023-05-03T11:33:31.968Z,34.93
2023-05-03T11:35:58.474Z,34.30
2023-05-03T11:38:25.146Z,32.57
2023-05-03T11:40:51.665Z,31.48
2023-05-03T11:43:18.133Z,31.91
2023-05-03T11:45:46.393Z,33.26
2023-05-03T11:48:13.855Z,33.65
2023-05-03T11:50:58.494Z,33.55
2023-05-03T11:53:26.372Z,34.44
2023-05-03T11:55:54.273Z,36.31
2023-05-03T11:58:26.402Z,37.92
2023-05-03T12:00:57.135Z,39.25
2023-05-03T12:03:30.467Z,39.46
2023-05-03T12:05:58.889Z,39.97
2023-05-03T12:08:31.910Z,39.57
2023-05-03T12:11:02.868Z,40.22
2023-05-03T12:13:39.700Z,40.71
2023-05-03T12:16:13.684Z,40.46
2023-05-03T12:19:02.130Z,40.38
2023-05-03T12:21:58.825Z,40.35
2023-05-03T12:24:35.419Z,41.37
2023-05-03T12:27:03.242Z,40.88
2023-05-03T12:29:34.673Z,40.52
2023-05-03T12:32:03.446Z,41.05
2023-05-03T12:34:34.731Z,41.71
2023-05-03T12:37:04.842Z,42.52
2023-05-03T12:39:32.893Z,42.85
2023-05-03T12:44:31.282Z,42.69
2023-05-03T12:47:02.003Z,43.40
2023-05-03T12:49:28.955Z,43.90
2023-05-03T12:52:11.343Z,43.13
2023-05-03T12:54:48.920Z,43.03
2023-05-03T12:57:22.059Z,43.26
2023-05-03T12:59:53.984Z,42.91
2023-05-03T13:04:59.701Z,42.45
2023-05-03T13:07:30.182Z,42.81
2023-05-03T13:12:28.346Z,43.59
2023-05-03T13:14:55.389Z,43.69
2023-05-03T13:17:23.222Z,44.25
2023-05-03T13:19:51.359Z,44.80
2023-05-03T13:22:18.213Z,44.36
2023-05-03T13:24:45.984Z,45.40
2023-05-03T13:27:12.806Z,45.92
2023-05-03T13:29:39.979Z,45.61
2023-05-03T13:32:08.079Z,44.64
2023-05-03T13:34:35.165Z,42.96
2023-05-03T13:37:02.687Z,44.76
2023-05-03T13:39:29.299Z,44.90
2023-05-03T13:41:55.896Z,43.86
2023-05-03T13:44:25.334Z,43.97
2023-05-03T13:46:56.318Z,42.24
2023-05-03T13:49:22.847Z,42.41
2023-05-03T13:51:49.378Z,41.80
2023-05-03T13:54:15.853Z,42.29
2023-05-03T13:56:43.201Z,42.10
2023-05-03T13:59:12.302Z,41.86
2023-05-03T14:01:39.327Z,41.00
2023-05-03T14:04:06.110Z,41.06
2023-05-03T14:06:33.593Z,41.54
2023-05-03T14:09:01.628Z,42.18
2023-05-03T14:11:29.766Z,41.78
2023-05-03T14:13:57.526Z,40.64
2023-05-03T14:16:40.042Z,41.01
2023-05-03T14:19:10.159Z,41.42
2023-05-03T14:21:37.137Z,41.69
2023-05-03T14:24:03.857Z,42.22
2023-05-03T14:26:30.424Z,42.25
2023-05-03T14:28:59.344Z,42.75
2023-05-03T14:31:26.121Z,43.32
2023-05-03T14:33:53.114Z,44.27
2023-05-03T14:36:19.632Z,43.97
2023-05-03T14:38:46.379Z,43.98
2023-05-03T14:41:13.328Z,44.28
2023-05-03T14:43:39.771Z,45.08
2023-05-03T14:46:06.229Z,43.85
2023-05-03T14:48:32.652Z,43.92
2023-05-03T14:50:59.361Z,43.09
2023-05-03T14:53:25.945Z,43.89
2023-05-03T14:55:53.757Z,42.01
2023-05-03T14:58:20.242Z,41.14
2023-05-03T15:00:46.733Z,39.90
2023-05-03T15:03:13.729Z,40.53
2023-05-03T15:05:58.575Z,41.96
2023-05-03T15:08:25.267Z,41.76
2023-05-03T15:10:52.427Z,41.72
2023-05-03T15:13:19.194Z,41.36
2023-05-03T15:15:46.045Z,41.71
2023-05-03T15:18:14.459Z,41.63
2023-05-03T15:20:41.204Z,41.31
2023-05-03T15:23:07.805Z,41.74
2023-05-03T15:25:34.279Z,41.52
2023-05-03T15:28:04.181Z,41.82
2023-05-03T15:30:32.923Z,42.26
2023-05-03T15:32:59.962Z,42.90
2023-05-03T15:35:27.270Z,42.65
2023-05-03T15:37:54.101Z,44.45
2023-05-03T15:40:23.676Z,44.94
2023-05-03T15:42:51.879Z,43.50
2023-05-03T15:45:19.464Z,43.05
2023-05-03T15:47:46.206Z,44.22
2023-05-03T15:50:12.935Z,44.88
2023-05-03T15:52:39.481Z,45.09
2023-05-03T15:55:06.773Z,45.05
2023-05-03T15:57:33.350Z,46.42
2023-05-03T15:59:59.810Z,46.09
2023-05-03T16:02:26.287Z,46.35
2023-05-03T16:04:52.814Z,46.33
2023-05-03T16:07:19.390Z,45.47
2023-05-03T16:09:46.580Z,45.38
2023-05-03T16:12:13.078Z,45.19
2023-05-03T16:14:39.883Z,44.63
2023-05-03T16:17:06.367Z,44.17
2023-05-03T16:19:32.921Z,43.96
2023-05-03T16:21:59.475Z,44.49
2023-05-03T16:24:26.355Z,44.99
2023-05-03T16:26:53.028Z,45.36
2023-05-03T16:29:19.771Z,45.77
2023-05-03T16:31:46.952Z,46.57
2023-05-03T16:34:14.295Z,47.17
2023-05-03T16:36:43.281Z,46.98
2023-05-03T16:39:13.824Z,46.66
2023-05-03T16:41:41.341Z,46.71
2023-05-03T16:44:09.253Z,46.92
2023-05-03T16:46:37.118Z,47.92
2023-05-03T16:49:05.041Z,48.07
2023-05-03T16:51:32.228Z,47.90
2023-05-03T16:53:59.814Z,48.25
2023-05-03T16:56:27.775Z,48.11
2023-05-03T16:58:54.350Z,48.93
2023-05-03T17:01:22.042Z,48.95
2023-05-03T17:03:48.897Z,49.16
2023-05-03T17:06:16.025Z,49.36
2023-05-03T17:08:42.773Z,49.63
2023-05-03T17:11:12.453Z,50.19
2023-05-03T17:13:39.253Z,49.73
2023-05-03T17:16:10.857Z,49.98
2023-05-03T17:18:38.570Z,49.73
2023-05-03T17:21:05.661Z,49.90
2023-05-03T17:23:36.190Z,50.17
2023-05-03T17:26:04.125Z,50.76
2023-05-03T17:28:31.729Z,50.52
2023-05-03T17:30:59.390Z,50.38
2023-05-03T17:33:26.466Z,50.52
2023-05-03T17:35:54.033Z,50.98
2023-05-03T17:38:20.627Z,50.97
2023-05-03T17:40:47.476Z,51.34
2023-05-03T17:43:17.362Z,51.31
2023-05-03T17:45:45.166Z,52.01
2023-05-03T17:48:14.763Z,51.82
2023-05-03T17:50:46.268Z,51.97
2023-05-03T17:53:12.852Z,52.16
2023-05-03T17:55:39.373Z,52.43
2023-05-03T17:58:06.409Z,52.53
2023-05-03T18:00:33.481Z,52.98
2023-05-03T18:03:00.242Z,52.98
2023-05-03T18:05:27.589Z,53.00
2023-05-03T18:07:54.207Z,53.07
2023-05-03T18:10:21.111Z,53.35
2023-05-03T18:12:47.745Z,53.71
2023-05-03T18:15:15.501Z,54.05
2023-05-03T18:17:42.804Z,54.38
2023-05-03T18:20:10.098Z,54.27
2023-05-03T18:22:37.600Z,54.51
2023-05-03T18:25:07.441Z,55.29
2023-05-03T18:27:37.363Z,55.42
2023-05-03T18:30:06.735Z,55.90
2023-05-03T18:32:34.101Z,55.96
2023-05-03T18:35:01.019Z,56.62
2023-05-03T18:37:27.755Z,57.23
2023-05-03T18:39:54.372Z,57.42
2023-05-03T18:42:21.355Z,57.49
2023-05-03T18:44:48.310Z,58.05
2023-05-03T18:47:16.403Z,58.33
2023-05-03T18:49:48.328Z,58.41
2023-05-03T18:52:15.211Z,59.11
2023-05-03T18:54:41.713Z,59.49
2023-05-03T18:57:08.146Z,59.79
2023-05-03T18:59:36.672Z,60.79
2023-05-03T19:02:07.966Z,61.03
2023-05-03T19:04:34.729Z,60.74
2023-05-03T19:07:01.555Z,61.21
2023-05-03T19:09:28.206Z,62.09
2023-05-03T19:11:55.481Z,62.78
2023-05-03T19:14:22.111Z,63.49
2023-05-03T19:16:48.663Z,63.93
2023-05-03T19:19:15.540Z,65.28
2023-05-03T19:21:43.701Z,65.06
2023-05-03T19:24:15.045Z,65.23
2023-05-03T19:26:41.705Z,65.01
2023-05-03T19:29:09.112Z,65.06
2023-05-03T19:31:35.800Z,66.28
2023-05-03T19:34:02.892Z,66.40
2023-05-03T19:36:29.801Z,66.94
2023-05-03T19:38:56.372Z,67.97
2023-05-03T19:41:22.903Z,68.80
2023-05-03T19:43:53.959Z,68.69
2023-05-03T19:46:20.700Z,69.72
2023-05-03T19:48:47.505Z,69.76
2023-05-03T19:51:17.365Z,70.02
2023-05-03T19:53:44.261Z,71.03
2023-05-03T19:56:13.258Z,71.39
2023-05-03T19:58:40.062Z,71.77
2023-05-03T20:01:07.113Z,72.25
2023-05-03T20:03:33.684Z,73.31
2023-05-03T20:06:00.206Z,73.54
2023-05-03T20:08:27.091Z,74.16
2023-05-03T20:10:55.548Z,74.46
2023-05-03T20:13:22.582Z,74.99
2023-05-03T20:15:49.465Z,76.04
2023-05-03T20:18:15.931Z,76.71
2023-05-03T20:20:42.407Z,76.92
2023-05-03T20:23:08.894Z,77.79
2023-05-03T20:25:35.392Z,78.94
2023-05-03T20:28:01.966Z,78.94
2023-05-03T20:30:30.925Z,79.02
2023-05-03T20:32:58.655Z,80.08
2023-05-03T20:35:25.548Z,81.36
2023-05-03T20:37:52.092Z,80.98
2023-05-03T20:40:18.540Z,83.61
2023-05-03T20:42:45.243Z,83.39
2023-05-03T20:45:12.361Z,84.76
2023-05-03T20:47:38.818Z,86.22
2023-05-03T20:50:06.216Z,86.33
2023-05-03T20:52:33.031Z,87.06
2023-05-03T20:54:59.461Z,87.12
2023-05-03T21:02:43.244Z,88.66
2023-05-03T21:05:11.222Z,90.37
2023-05-03T21:07:38.441Z,91.18
2023-05-03T21:10:07.038Z,92.63
2023-05-03T21:12:33.929Z,93.31
2023-05-03T21:15:00.440Z,93.36
2023-05-03T21:17:27.210Z,96.36
2023-05-03T21:19:53.697Z,97.67
2023-05-03T21:22:20.274Z,98.18
2023-05-03T21:24:46.783Z,99.19
2023-05-03T21:27:13.277Z,100.00
2023-05-03T21:29:39.714Z,100.00
2023-05-03T21:32:06.629Z,100.00
2023-05-03T21:34:33.238Z,100.00
2023-05-03T21:37:01.034Z,100.00
2023-05-03T21:39:27.517Z,100.00
2023-05-03T21:41:54.411Z,100.00
2023-05-03T21:44:21.045Z,100.00
2023-05-03T21:46:47.677Z,100.00
2023-05-03T21:49:15.193Z,100.00
2023-05-03T21:51:41.670Z,100.00
2023-05-03T21:54:08.165Z,100.00
2023-05-03T21:56:34.766Z,100.00
2023-05-03T21:59:01.468Z,100.00
2023-05-03T22:01:29.773Z,100.00
2023-05-03T22:03:56.514Z,100.00
2023-05-03T22:06:23.167Z,100.00
2023-05-03T22:08:49.659Z,100.00
2023-05-03T22:11:16.132Z,100.00
2023-05-03T22:13:58.875Z,100.00
2023-05-03T22:16:29.447Z,100.00
2023-05-03T22:18:56.108Z,100.00
2023-05-03T22:21:22.536Z,100.00
2023-05-03T22:23:49.044Z,100.00
2023-05-03T22:26:15.482Z,100.00
2023-05-03T22:28:41.910Z,100.00
2023-05-03T22:31:08.478Z,100.00
2023-05-03T22:33:35.531Z,100.00
2023-05-03T22:36:02.101Z,100.00
2023-05-03T22:38:28.522Z,100.00
2023-05-03T22:40:54.945Z,100.00
2023-05-03T22:43:21.347Z,100.00
2023-05-03T22:45:47.805Z,100.00
2023-05-03T22:48:14.308Z,100.00
2023-05-03T22:50:40.831Z,100.00
2023-05-03T22:53:07.371Z,100.00
2023-05-03T22:55:33.799Z,100.00
2023-05-03T22:58:00.274Z,100.00
2023-05-03T23:00:26.912Z,100.00
2023-05-03T23:02:53.768Z,100.00
2023-05-03T23:05:20.345Z,100.00
2023-05-03T23:07:46.792Z,100.00
2023-05-03T23:10:13.740Z,100.00
2023-05-03T23:12:40.358Z,100.00
2023-05-03T23:15:07.266Z,100.00
2023-05-03T23:17:33.893Z,100.00
2023-05-03T23:20:00.574Z,100.00
2023-05-03T23:22:27.494Z,100.00
2023-05-03T23:24:53.929Z,100.00
2023-05-03T23:27:20.375Z,100.00
2023-05-03T23:29:48.207Z,100.00
2023-05-03T23:32:15.294Z,100.00
2023-05-03T23:34:42.533Z,100.00
2023-05-03T23:37:09.010Z,100.00
2023-05-03T23:39:35.694Z,100.00
2023-05-03T23:42:02.107Z,100.00
2023-05-03T23:44:39.295Z,100.00
2023-05-03T23:47:14.999Z,100.00
2023-05-03T23:49:41.501Z,100.00
2023-05-03T23:52:08.421Z,100.00
2023-05-03T23:54:34.974Z,100.00
2023-05-03T23:57:03.993Z,100.00
2023-05-03T23:59:30.670Z,100.00
